createdAt,value
2022-11-01T00:01:36.369Z,16.54
2022-11-01T00:04:03.959Z,16.30
2022-11-01T00:06:31.414Z,16.62
2022-11-01T00:08:59.220Z,16.43
2022-11-01T00:11:28.034Z,16.34
2022-11-01T00:13:55.491Z,16.70
2022-11-01T00:16:23.000Z,16.88
2022-11-01T00:18:50.546Z,16.65
2022-11-01T00:21:18.098Z,16.66
2022-11-01T00:23:45.715Z,16.55
2022-11-01T00:26:15.518Z,16.88
2022-11-01T00:28:44.388Z,16.69
2022-11-01T00:31:12.844Z,16.88
2022-11-01T00:33:40.531Z,16.97
2022-11-01T00:36:08.371Z,16.76
2022-11-01T00:38:35.955Z,16.82
2022-11-01T00:41:04.098Z,17.07
2022-11-01T00:43:31.940Z,16.83
2022-11-01T00:46:00.939Z,17.02
2022-11-01T00:48:28.558Z,17.26
2022-11-01T00:50:56.015Z,17.13
2022-11-01T00:53:23.619Z,16.90
2022-11-01T00:55:51.095Z,17.10
2022-11-01T00:58:18.591Z,16.92
2022-11-01T01:00:46.147Z,17.29
2022-11-01T01:03:15.075Z,16.85
2022-11-01T01:05:42.526Z,17.09
2022-11-01T01:08:10.021Z,17.01
2022-11-01T01:10:37.456Z,17.22
2022-11-01T01:13:05.167Z,17.44
2022-11-01T01:15:32.799Z,17.25
2022-11-01T01:18:00.684Z,17.40
2022-11-01T01:20:29.699Z,16.98
2022-11-01T01:22:57.253Z,17.26
2022-11-01T01:25:24.884Z,17.45
2022-11-01T01:27:52.369Z,17.36
2022-11-01T01:30:20.102Z,17.39
2022-11-01T01:32:47.546Z,17.44
2022-11-01T01:35:15.011Z,17.13
2022-11-01T01:37:43.847Z,17.28
2022-11-01T01:40:11.510Z,17.30
2022-11-01T01:42:39.762Z,17.07
2022-11-01T01:45:21.551Z,17.48
2022-11-01T01:47:50.563Z,17.28
2022-11-01T01:50:19.372Z,17.49
2022-11-01T01:52:49.919Z,17.94
2022-11-01T01:55:17.669Z,17.63
2022-11-01T01:57:45.138Z,17.55
2022-11-01T02:00:13.287Z,17.16
2022-11-01T02:02:40.775Z,17.56
2022-11-01T02:05:09.454Z,17.42
2022-11-01T02:07:36.956Z,17.79
2022-11-01T02:10:06.311Z,17.66
2022-11-01T02:12:34.852Z,17.76
2022-11-01T02:15:02.333Z,17.53
2022-11-01T02:17:30.611Z,17.97
2022-11-01T02:20:19.195Z,17.97
2022-11-01T02:22:51.652Z,17.97
2022-11-01T02:25:23.969Z,17.91
2022-11-01T02:28:00.243Z,17.72
2022-11-01T02:30:27.844Z,17.98
2022-11-01T02:33:05.536Z,18.24
2022-11-01T02:35:38.153Z,18.06
2022-11-01T02:38:07.982Z,18.22
2022-11-01T02:40:36.780Z,18.40
2022-11-01T02:43:05.719Z,18.38
2022-11-01T02:45:34.615Z,17.96
2022-11-01T02:48:02.678Z,18.31
2022-11-01T02:50:33.358Z,18.67
2022-11-01T02:53:01.126Z,18.36
2022-11-01T02:55:31.770Z,18.30
2022-11-01T02:58:00.232Z,18.50
2022-11-01T03:00:29.218Z,18.18
2022-11-01T03:02:57.718Z,18.30
2022-11-01T03:05:26.423Z,18.25
2022-11-01T03:07:56.699Z,18.34
2022-11-01T03:10:24.351Z,18.49
2022-11-01T03:12:53.264Z,18.46
2022-11-01T03:15:21.820Z,18.52
2022-11-01T03:17:50.356Z,18.44
2022-11-01T03:20:18.821Z,18.52
2022-11-01T03:22:47.229Z,18.82
2022-11-01T03:25:30.553Z,18.72
2022-11-01T03:27:58.167Z,18.55
2022-11-01T03:30:25.783Z,18.35
2022-11-01T03:32:54.373Z,18.52
2022-11-01T03:35:23.347Z,18.30
2022-11-01T03:37:51.023Z,18.08
2022-11-01T03:40:19.876Z,18.18
2022-11-01T03:42:48.309Z,18.26
2022-11-01T03:45:15.891Z,18.05
2022-11-01T03:47:43.370Z,18.09
2022-11-01T03:50:17.168Z,18.47
2022-11-01T03:52:44.674Z,18.24
2022-11-01T03:55:19.006Z,18.19
2022-11-01T03:57:48.295Z,17.74
2022-11-01T04:00:16.398Z,18.24
2022-11-01T04:02:44.111Z,18.23
2022-11-01T04:05:11.826Z,17.98
2022-11-01T04:07:39.258Z,17.71
2022-11-01T04:10:07.224Z,17.73
2022-11-01T04:12:34.670Z,17.93
2022-11-01T04:15:21.060Z,18.20
2022-11-01T04:18:05.844Z,18.18
2022-11-01T04:20:36.258Z,18.24
2022-11-01T04:23:04.581Z,18.06
2022-11-01T04:25:32.779Z,18.04
2022-11-01T04:28:00.341Z,18.26
2022-11-01T04:30:29.639Z,18.20
2022-11-01T04:32:57.110Z,18.20
2022-11-01T04:35:24.666Z,18.12
2022-11-01T04:37:56.667Z,17.96
2022-11-01T04:40:24.203Z,18.00
2022-11-01T04:42:53.071Z,18.32
2022-11-01T04:45:20.546Z,18.19
2022-11-01T04:47:52.460Z,18.28
2022-11-01T04:50:20.915Z,18.23
2022-11-01T04:52:48.594Z,18.32
2022-11-01T04:55:16.148Z,17.90
2022-11-01T04:57:43.778Z,17.90
2022-11-01T05:00:12.308Z,17.95
2022-11-01T05:02:39.984Z,18.08
2022-11-01T05:05:09.701Z,18.08
2022-11-01T05:07:37.308Z,18.11
2022-11-01T05:10:05.528Z,18.25
2022-11-01T05:12:33.138Z,17.83
2022-11-01T05:15:00.640Z,17.96
2022-11-01T05:17:28.280Z,17.99
2022-11-01T05:19:55.746Z,18.22
2022-11-01T05:22:24.741Z,17.73
2022-11-01T05:24:52.967Z,17.98
2022-11-01T05:27:20.670Z,18.06
2022-11-01T05:29:48.329Z,17.93
2022-11-01T05:32:15.944Z,17.92
2022-11-01T05:34:43.585Z,18.10
2022-11-01T05:37:11.503Z,17.67
2022-11-01T05:39:40.527Z,17.79
2022-11-01T05:42:08.312Z,17.79
2022-11-01T05:44:35.950Z,17.82
2022-11-01T05:47:04.690Z,17.78
2022-11-01T05:49:32.362Z,17.69
2022-11-01T05:52:00.044Z,17.58
2022-11-01T05:54:27.703Z,17.60
2022-11-01T05:56:56.688Z,17.07
2022-11-01T05:59:24.323Z,17.46
2022-11-01T06:01:52.061Z,17.12
2022-11-01T06:04:19.766Z,17.20
2022-11-01T06:06:47.408Z,17.25
2022-11-01T06:09:15.051Z,17.56
2022-11-01T06:11:42.671Z,17.50
2022-11-01T06:14:13.009Z,17.41
2022-11-01T06:16:40.692Z,17.29
2022-11-01T06:19:09.538Z,17.20
2022-11-01T06:21:38.177Z,17.04
2022-11-01T06:24:06.351Z,16.94
2022-11-01T06:26:33.997Z,16.83
2022-11-01T06:29:02.000Z,16.90
2022-11-01T06:31:31.045Z,16.57
2022-11-01T06:33:58.723Z,16.86
2022-11-01T06:36:26.431Z,16.59
2022-11-01T06:38:54.074Z,16.39
2022-11-01T06:41:21.747Z,16.10
2022-11-01T06:43:49.594Z,15.95
2022-11-01T06:46:17.250Z,15.92
2022-11-01T06:48:48.394Z,16.21
2022-11-01T06:51:16.027Z,16.01
2022-11-01T06:53:43.771Z,16.26
2022-11-01T06:56:11.399Z,16.06
2022-11-01T06:58:39.056Z,15.85
2022-11-01T07:01:06.829Z,16.00
2022-11-01T07:03:34.593Z,15.80
2022-11-01T07:06:03.871Z,16.01
2022-11-01T07:08:31.507Z,16.08
2022-11-01T07:10:59.426Z,15.62
2022-11-01T07:13:28.911Z,15.50
2022-11-01T07:15:56.605Z,15.58
2022-11-01T07:18:24.242Z,15.91
2022-11-01T07:20:51.904Z,15.30
2022-11-01T07:23:21.008Z,15.68
2022-11-01T07:25:52.130Z,15.70
2022-11-01T07:28:19.775Z,15.98
2022-11-01T07:30:48.635Z,15.74
2022-11-01T07:33:16.290Z,15.58
2022-11-01T07:35:43.924Z,15.45
2022-11-01T07:38:13.354Z,15.60
2022-11-01T07:40:42.865Z,15.54
2022-11-01T07:43:10.767Z,15.67
2022-11-01T07:45:38.649Z,15.66
2022-11-01T07:48:10.034Z,15.83
2022-11-01T07:50:38.655Z,15.95
2022-11-01T07:53:07.952Z,15.90
2022-11-01T07:55:35.616Z,15.70
2022-11-01T07:58:05.331Z,15.88
2022-11-01T08:03:08.669Z,15.50
2022-11-01T08:05:36.727Z,16.01
2022-11-01T08:08:05.754Z,15.60
2022-11-01T08:10:34.400Z,15.67
2022-11-01T08:13:04.856Z,15.68
2022-11-01T08:15:32.810Z,15.74
2022-11-01T08:18:01.236Z,15.76
2022-11-01T08:20:29.958Z,15.52
2022-11-01T08:22:57.863Z,15.39
2022-11-01T08:25:26.229Z,15.72
2022-11-01T08:27:53.854Z,16.04
2022-11-01T08:30:22.916Z,15.79
2022-11-01T08:32:50.532Z,16.00
2022-11-01T08:35:18.313Z,15.97
2022-11-01T08:37:50.157Z,15.88
2022-11-01T08:40:17.987Z,15.92
2022-11-01T08:42:45.771Z,15.96
2022-11-01T08:45:13.832Z,15.74
2022-11-01T08:47:43.139Z,15.74
2022-11-01T08:50:12.808Z,16.33
2022-11-01T08:52:40.487Z,16.12
2022-11-01T08:55:09.397Z,16.10
2022-11-01T08:57:37.104Z,16.16
2022-11-01T09:00:06.939Z,15.77
2022-11-01T09:02:34.778Z,16.20
2022-11-01T09:05:06.135Z,16.46
2022-11-01T09:07:34.696Z,16.53
2022-11-01T09:10:02.377Z,16.23
2022-11-01T09:12:30.115Z,15.72
2022-11-01T09:14:57.803Z,15.79
2022-11-01T09:17:25.479Z,16.49
2022-11-01T09:19:53.151Z,16.47
2022-11-01T09:22:22.284Z,16.21
2022-11-01T09:24:49.945Z,15.84
2022-11-01T09:27:17.598Z,16.39
2022-11-01T09:29:47.940Z,16.57
2022-11-01T09:32:18.706Z,16.36
2022-11-01T09:34:48.914Z,16.56
2022-11-01T09:37:16.885Z,16.58
2022-11-01T09:39:45.881Z,16.58
2022-11-01T09:42:20.612Z,16.46
2022-11-01T09:44:49.477Z,16.69
2022-11-01T09:47:20.210Z,16.81
2022-11-01T09:49:49.925Z,17.03
2022-11-01T09:52:20.824Z,16.66
2022-11-01T09:54:49.911Z,17.17
2022-11-01T09:57:21.913Z,16.89
2022-11-01T09:59:59.076Z,16.70
2022-11-01T10:02:43.602Z,17.24
2022-11-01T10:05:22.488Z,17.43
2022-11-01T10:07:59.819Z,17.48
2022-11-01T10:10:36.798Z,17.23
2022-11-01T10:13:16.315Z,17.19
2022-11-01T10:15:53.406Z,16.88
2022-11-01T10:18:28.124Z,16.92
2022-11-01T10:20:57.536Z,17.09
2022-11-01T10:23:34.452Z,16.74
2022-11-01T10:26:04.293Z,16.46
2022-11-01T10:28:39.451Z,17.17
2022-11-01T10:31:12.978Z,17.02
2022-11-01T10:33:42.792Z,17.05
2022-11-01T10:36:14.662Z,17.43
2022-11-01T10:39:37.270Z,17.00
2022-11-01T10:41:40.979Z,17.36
2022-11-01T10:44:12.080Z,17.18
2022-11-01T10:46:41.245Z,16.99
2022-11-01T10:49:16.859Z,17.18
2022-11-01T10:51:44.931Z,16.83
2022-11-01T10:54:17.116Z,17.28
2022-11-01T10:56:48.579Z,17.13
2022-11-01T10:59:18.285Z,16.87
2022-11-01T11:01:47.118Z,17.20
2022-11-01T11:04:16.312Z,16.98
2022-11-01T11:06:44.450Z,17.25
2022-11-01T11:09:20.336Z,17.30
2022-11-01T11:11:51.255Z,16.90
2022-11-01T11:14:20.133Z,17.05
2022-11-01T11:16:50.267Z,17.11
2022-11-01T11:19:24.646Z,16.96
2022-11-01T11:21:54.083Z,17.42
2022-11-01T11:24:23.583Z,17.26
2022-11-01T11:26:54.613Z,16.82
2022-11-01T11:29:34.468Z,16.20
2022-11-01T11:32:02.767Z,16.64
2022-11-01T11:34:32.083Z,16.88
2022-11-01T11:37:00.108Z,17.25
2022-11-01T11:39:29.023Z,17.40
2022-11-01T11:42:11.666Z,17.54
2022-11-01T11:44:41.856Z,17.45
2022-11-01T11:47:20.038Z,17.10
2022-11-01T11:49:48.525Z,17.83
2022-11-01T11:52:18.008Z,17.60
2022-11-01T11:54:45.923Z,17.60
2022-11-01T11:57:18.932Z,17.86
2022-11-01T11:59:47.627Z,18.23
2022-11-01T12:02:20.894Z,17.42
2022-11-01T12:04:53.272Z,17.52
2022-11-01T12:07:25.984Z,17.68
2022-11-01T12:09:53.725Z,17.57
2022-11-01T12:12:25.212Z,17.02
2022-11-01T12:14:53.265Z,17.42
2022-11-01T12:17:25.800Z,17.35
2022-11-01T12:19:59.426Z,17.52
2022-11-01T12:22:28.933Z,18.10
2022-11-01T12:24:58.812Z,17.58
2022-11-01T12:27:30.090Z,17.90
2022-11-01T12:30:02.720Z,17.65
2022-11-01T12:32:33.782Z,17.26
2022-11-01T12:35:05.794Z,18.01
2022-11-01T12:37:48.542Z,17.89
2022-11-01T12:40:19.799Z,17.63
2022-11-01T12:42:51.603Z,18.02
2022-11-01T12:45:24.931Z,17.77
2022-11-01T12:47:56.578Z,17.85
2022-11-01T12:50:26.076Z,17.40
2022-11-01T12:52:57.440Z,17.50
2022-11-01T12:55:31.127Z,17.69
2022-11-01T12:58:00.221Z,17.55
2022-11-01T13:00:32.515Z,17.92
2022-11-01T13:03:10.447Z,17.88
2022-11-01T13:05:46.898Z,17.64
2022-11-01T13:08:21.104Z,17.72
2022-11-01T13:10:49.365Z,17.92
2022-11-01T13:13:22.583Z,18.08
2022-11-01T13:15:57.685Z,18.06
2022-11-01T13:18:33.889Z,17.90
2022-11-01T13:21:07.234Z,18.33
2022-11-01T13:23:37.857Z,17.62
2022-11-01T13:26:08.794Z,17.88
2022-11-01T13:28:50.891Z,18.25
2022-11-01T13:31:25.515Z,18.06
2022-11-01T13:33:58.633Z,18.18
2022-11-01T13:36:31.287Z,18.01
2022-11-01T13:39:01.994Z,18.20
2022-11-01T13:41:34.921Z,18.21
2022-11-01T13:44:07.241Z,17.48
2022-11-01T13:46:46.286Z,18.14
2022-11-01T13:49:41.240Z,17.90
2022-11-01T13:52:10.769Z,17.87
2022-11-01T13:54:40.726Z,17.68
2022-11-01T13:57:13.249Z,17.87
2022-11-01T13:59:54.095Z,18.01
2022-11-01T14:02:53.836Z,17.59
2022-11-01T14:05:21.655Z,17.65
2022-11-01T14:08:35.162Z,18.17
2022-11-01T14:11:02.819Z,17.82
2022-11-01T14:13:36.342Z,17.43
2022-11-01T14:16:21.295Z,17.32
2022-11-01T14:19:21.976Z,17.67
2022-11-01T14:21:53.341Z,18.05
2022-11-01T14:24:35.136Z,17.94
2022-11-01T14:27:08.931Z,17.98
2022-11-01T14:29:37.314Z,18.52
2022-11-01T14:32:07.055Z,18.71
2022-11-01T14:34:36.376Z,18.17
2022-11-01T14:37:11.020Z,18.14
2022-11-01T14:39:41.950Z,18.02
2022-11-01T14:42:12.338Z,17.38
2022-11-01T14:44:45.522Z,17.67
2022-11-01T14:47:23.940Z,17.59
2022-11-01T14:49:56.204Z,17.63
2022-11-01T14:52:31.057Z,17.23
2022-11-01T14:55:04.827Z,17.35
2022-11-01T14:57:34.822Z,17.27
2022-11-01T15:00:22.972Z,17.37
2022-11-01T15:02:52.230Z,16.73
2022-11-01T15:05:20.077Z,16.86
2022-11-01T15:07:52.045Z,16.79
2022-11-01T15:10:19.865Z,16.87
2022-11-01T15:12:49.151Z,16.50
2022-11-01T15:15:18.928Z,17.03
2022-11-01T15:17:53.124Z,16.77
2022-11-01T15:20:21.172Z,16.99
2022-11-01T15:22:50.066Z,16.93
2022-11-01T15:25:22.440Z,16.54
2022-11-01T15:27:50.837Z,16.62
2022-11-01T15:30:23.381Z,16.54
2022-11-01T15:33:15.926Z,16.43
2022-11-01T15:35:43.803Z,16.62
2022-11-01T15:38:20.829Z,16.43
2022-11-01T15:40:50.244Z,16.38
2022-11-01T15:43:19.901Z,16.32
2022-11-01T15:45:48.978Z,16.20
2022-11-01T15:48:21.631Z,16.22
2022-11-01T15:50:52.259Z,15.96
2022-11-01T15:53:23.131Z,15.85
2022-11-01T15:55:53.268Z,16.12
2022-11-01T15:58:24.028Z,15.94
2022-11-01T16:00:53.291Z,15.98
2022-11-01T16:03:25.257Z,15.76
2022-11-01T16:05:56.973Z,15.59
2022-11-01T16:08:29.672Z,15.92
2022-11-01T16:10:57.364Z,15.59
2022-11-01T16:13:25.098Z,15.54
2022-11-01T16:16:03.781Z,15.66
2022-11-01T16:18:36.387Z,15.66
2022-11-01T16:21:06.195Z,15.73
2022-11-01T16:23:33.912Z,15.61
2022-11-01T16:26:02.677Z,15.33
2022-11-01T16:28:32.376Z,15.60
2022-11-01T16:31:00.130Z,15.35
2022-11-01T16:33:35.501Z,15.57
2022-11-01T16:36:06.208Z,15.28
2022-11-01T16:38:40.844Z,15.38
2022-11-01T16:41:17.982Z,15.63
2022-11-01T16:43:45.997Z,15.42
2022-11-01T16:46:13.762Z,15.35
2022-11-01T16:48:53.158Z,15.47
2022-11-01T16:51:24.911Z,15.22
2022-11-01T16:53:52.713Z,15.60
2022-11-01T16:56:36.231Z,15.47
2022-11-01T16:59:07.694Z,15.60
2022-11-01T17:01:36.590Z,15.44
2022-11-01T17:04:05.275Z,16.19
2022-11-01T17:06:39.114Z,15.50
2022-11-01T17:09:11.774Z,15.69
2022-11-01T17:11:39.588Z,15.98
2022-11-01T17:14:07.311Z,15.73
2022-11-01T17:16:35.197Z,15.70
2022-11-01T17:19:03.132Z,15.84
2022-11-01T17:21:32.451Z,16.18
2022-11-01T17:24:01.468Z,16.09
2022-11-01T17:26:29.184Z,16.26
2022-11-01T17:28:56.815Z,16.24
2022-11-01T17:31:25.027Z,16.21
2022-11-01T17:33:52.663Z,16.10
2022-11-01T17:36:20.344Z,16.06
2022-11-01T17:38:50.260Z,16.08
2022-11-01T17:41:21.030Z,15.99
2022-11-01T17:43:48.722Z,15.89
2022-11-01T17:46:18.525Z,15.72
2022-11-01T17:48:46.159Z,15.61
2022-11-01T17:51:13.871Z,15.39
2022-11-01T17:53:42.150Z,15.39
2022-11-01T17:56:09.835Z,15.28
2022-11-01T17:58:38.844Z,15.16
2022-11-01T18:01:08.829Z,15.20
2022-11-01T18:03:37.117Z,15.15
2022-11-01T18:06:05.358Z,15.24
2022-11-01T18:08:34.832Z,15.21
2022-11-01T18:11:07.284Z,15.08
2022-11-01T18:13:44.257Z,14.96
2022-11-01T18:16:21.089Z,14.84
2022-11-01T18:19:10.035Z,14.86
2022-11-01T18:21:45.734Z,15.23
2022-11-01T18:24:22.207Z,14.63
2022-11-01T18:26:51.240Z,15.05
2022-11-01T18:29:23.505Z,14.66
2022-11-01T18:31:58.422Z,14.78
2022-11-01T18:34:32.008Z,14.65
2022-11-01T18:37:02.824Z,14.79
2022-11-01T18:39:36.327Z,14.89
2022-11-01T18:42:07.155Z,14.66
2022-11-01T18:44:36.224Z,14.88
2022-11-01T18:47:07.534Z,14.90
2022-11-01T18:49:35.230Z,14.90
2022-11-01T18:52:02.915Z,14.85
2022-11-01T18:54:31.606Z,14.86
2022-11-01T18:57:07.703Z,14.64
2022-11-01T18:59:39.160Z,14.93
2022-11-01T19:02:14.468Z,14.84
2022-11-01T19:04:43.641Z,14.78
2022-11-01T19:07:13.496Z,14.71
2022-11-01T19:09:43.875Z,14.83
2022-11-01T19:12:16.604Z,14.73
2022-11-01T19:14:46.302Z,14.72
2022-11-01T19:17:20.841Z,15.02
2022-11-01T19:19:48.491Z,15.25
2022-11-01T19:22:37.950Z,14.88
2022-11-01T19:25:17.613Z,14.78
2022-11-01T19:27:45.454Z,14.78
2022-11-01T19:30:24.536Z,14.95
2022-11-01T19:32:54.094Z,15.01
2022-11-01T19:35:22.574Z,14.68
2022-11-01T19:37:51.792Z,15.02
2022-11-01T19:40:27.826Z,14.86
2022-11-01T19:42:56.008Z,14.91
2022-11-01T19:45:32.641Z,14.64
2022-11-01T19:48:02.231Z,14.43
2022-11-01T19:50:39.368Z,14.85
2022-11-01T19:53:16.897Z,14.83
2022-11-01T19:55:49.971Z,14.32
2022-11-01T19:58:39.055Z,14.84
2022-11-01T20:01:33.360Z,14.84
2022-11-01T20:04:03.439Z,14.44
2022-11-01T20:06:35.261Z,14.72
2022-11-01T20:09:05.291Z,14.72
2022-11-01T20:11:33.544Z,14.62
2022-11-01T20:14:01.662Z,14.90
2022-11-01T20:16:30.878Z,14.80
2022-11-01T20:18:58.570Z,14.96
2022-11-01T20:21:26.801Z,15.02
2022-11-01T20:23:54.526Z,15.00
2022-11-01T20:26:22.203Z,14.85
2022-11-01T20:28:50.095Z,14.99
2022-11-01T20:31:18.555Z,15.14
2022-11-01T20:33:47.643Z,14.67
2022-11-01T20:36:15.313Z,14.87
2022-11-01T20:38:43.076Z,15.16
2022-11-01T20:41:10.731Z,14.79
2022-11-01T20:43:38.460Z,15.05
2022-11-01T20:46:06.461Z,14.75
2022-11-01T20:48:34.173Z,14.96
2022-11-01T20:51:04.452Z,15.13
2022-11-01T20:53:32.137Z,15.05
2022-11-01T20:55:59.897Z,14.65
2022-11-01T20:58:27.921Z,14.90
2022-11-01T21:00:56.303Z,14.91
2022-11-01T21:03:28.561Z,14.80
2022-11-01T21:05:56.192Z,14.81
2022-11-01T21:08:26.104Z,15.02
2022-11-01T21:10:56.245Z,14.56
2022-11-01T21:13:26.324Z,14.79
2022-11-01T21:15:55.049Z,14.97
2022-11-01T21:18:34.634Z,14.47
2022-11-01T21:21:46.418Z,14.72
2022-11-01T21:24:33.987Z,15.04
2022-11-01T21:27:17.715Z,14.72
2022-11-01T21:29:47.265Z,14.68
2022-11-01T21:32:27.051Z,14.77
2022-11-01T21:34:55.089Z,15.07
2022-11-01T21:37:23.404Z,14.94
2022-11-01T21:40:01.572Z,15.27
2022-11-01T21:42:33.474Z,15.18
2022-11-01T21:45:01.164Z,14.75
2022-11-01T21:47:31.198Z,14.91
2022-11-01T21:49:58.880Z,15.01
2022-11-01T21:52:26.651Z,15.13
2022-11-01T21:54:55.656Z,15.23
2022-11-01T21:57:23.319Z,15.09
2022-11-01T21:59:51.866Z,15.32
2022-11-01T22:02:19.547Z,14.74
2022-11-01T22:04:47.311Z,14.86
2022-11-01T22:07:14.968Z,15.28
2022-11-01T22:09:42.631Z,15.35
2022-11-01T22:12:11.650Z,14.90
2022-11-01T22:14:39.441Z,14.97
2022-11-01T22:17:07.101Z,15.03
2022-11-01T22:19:34.805Z,15.25
2022-11-01T22:22:02.563Z,14.91
2022-11-01T22:24:30.939Z,15.28
2022-11-01T22:26:59.002Z,15.34
2022-11-01T22:29:28.019Z,15.13
2022-11-01T22:31:55.652Z,15.30
2022-11-01T22:34:23.374Z,15.17
2022-11-01T22:36:51.129Z,15.07
2022-11-01T22:39:21.284Z,15.06
2022-11-01T22:41:49.332Z,15.34
2022-11-01T22:44:20.244Z,15.28
2022-11-01T22:46:55.205Z,15.39
2022-11-01T22:49:28.119Z,15.34
2022-11-01T22:51:57.481Z,15.25
2022-11-01T22:57:16.952Z,15.42
2022-11-01T22:59:47.072Z,15.40
2022-11-01T23:02:33.602Z,15.63
2022-11-01T23:05:21.466Z,15.66
2022-11-01T23:07:50.416Z,15.36
2022-11-01T23:10:33.409Z,15.33
2022-11-01T23:13:25.075Z,15.84
2022-11-01T23:15:52.863Z,15.81
2022-11-01T23:18:22.602Z,15.70
2022-11-01T23:20:56.109Z,15.65
2022-11-01T23:23:24.204Z,15.59
2022-11-01T23:25:52.590Z,15.11
2022-11-01T23:28:21.992Z,15.55
2022-11-01T23:30:49.943Z,15.32
2022-11-01T23:33:19.251Z,15.38
2022-11-01T23:35:52.007Z,15.59
2022-11-01T23:38:21.446Z,15.62
2022-11-01T23:40:50.852Z,15.69
2022-11-01T23:43:25.411Z,15.82
2022-11-01T23:45:53.248Z,15.68
2022-11-01T23:48:21.468Z,15.55
2022-11-01T23:50:49.790Z,15.46
2022-11-01T23:53:18.353Z,15.45
2022-11-01T23:55:48.767Z,15.70
2022-11-01T23:58:19.426Z,15.78
